Time,TemperatureF,DewpointF,PressureIn,WindDirection,WindDirectionDegrees,WindSpeedMPH,WindSpeedGustMPH,Humidity,HourlyPrecipIn,Conditions,Clouds,dailyrainin,SoftwareType,DateUTC
2013-04-19 00:03:00,40.0,34.0,29.61,WNW,302,12.0,-999.0,80,-99.99,,,-99.99,,2013-04-19 05:03:00,
2013-04-19 00:11:00,40.0,34.0,29.61,WNW,302,12.0,-999.0,80,-99.99,,,-99.99,,2013-04-19 05:11:00,
2013-04-19 00:22:00,40.0,35.0,29.62,WNW,299,11.0,-999.0,81,-99.99,,,-99.99,,2013-04-19 05:22:00,
2013-04-19 00:32:00,39.0,34.0,29.62,West,272,11.0,-999.0,82,-99.99,,,-99.99,,2013-04-19 05:32:00,
2013-04-19 00:42:00,39.0,34.0,29.62,West,272,11.0,-999.0,82,-99.99,,,-99.99,,2013-04-19 05:42:00,
2013-04-19 00:52:00,39.0,32.0,29.62,West,266,13.0,-999.0,77,-99.99,,,-99.99,,2013-04-19 05:52:00,
2013-04-19 01:02:00,39.0,32.0,29.62,West,277,14.0,-999.0,75,-99.99,,,-99.99,,2013-04-19 06:02:00,
2013-04-19 01:11:00,39.0,32.0,29.62,WNW,297,13.0,-999.0,76,-99.99,,,-99.99,,2013-04-19 06:11:00,
2013-04-19 01:22:00,39.0,32.0,29.62,WNW,297,13.0,-999.0,76,-99.99,,,-99.99,,2013-04-19 06:22:00,
2013-04-19 01:32:00,39.0,33.0,29.62,NW,306,10.0,-999.0,78,-99.99,,,-99.99,,2013-04-19 06:32:00,
2013-04-19 01:42:00,39.0,33.0,29.62,NW,306,10.0,-999.0,78,-99.99,,,-99.99,,2013-04-19 06:42:00,
2013-04-19 01:52:00,39.0,34.0,29.61,West,274,9.0,-999.0,81,-99.99,,,-99.99,,2013-04-19 06:52:00,
2013-04-19 02:02:00,39.0,34.0,29.62,NW,304,11.0,-999.0,81,-99.99,,,-99.99,,2013-04-19 07:02:00,
2013-04-19 02:12:00,39.0,33.0,29.62,WNW,293,11.0,-999.0,80,-99.99,,,-99.99,,2013-04-19 07:12:00,
2013-04-19 02:21:00,39.0,33.0,29.62,WNW,293,11.0,-999.0,80,-99.99,,,-99.99,,2013-04-19 07:21:00,
2013-04-19 02:32:00,39.0,32.0,29.62,West,271,11.0,-999.0,77,-99.99,,,-99.99,,2013-04-19 07:32:00,
2013-04-19 02:42:00,39.0,32.0,29.62,West,271,11.0,-999.0,77,-99.99,,,-99.99,,2013-04-19 07:42:00,
2013-04-19 02:52:00,38.0,31.0,29.62,WNW,292,12.0,-999.0,75,-99.99,,,-99.99,,2013-04-19 07:52:00,
2013-04-19 03:02:00,38.0,31.0,29.62,West,263,11.0,-999.0,76,-99.99,,,-99.99,,2013-04-19 08:02:00,
2013-04-19 03:12:00,38.0,31.0,29.62,West,266,10.0,-999.0,77,-99.99,,,-99.99,,2013-04-19 08:12:00,
2013-04-19 03:21:00,38.0,31.0,29.62,West,266,10.0,-999.0,77,-99.99,,,-99.99,,2013-04-19 08:21:00,
2013-04-19 03:32:00,38.0,30.0,29.62,WSW,255,14.0,-999.0,73,-99.99,,,-99.99,,2013-04-19 08:32:00,
2013-04-19 03:42:00,38.0,30.0,29.62,WNW,289,11.0,-999.0,74,-99.99,,,-99.99,,2013-04-19 08:42:00,
2013-04-19 03:52:00,38.0,30.0,29.62,WNW,289,11.0,-999.0,74,-99.99,,,-99.99,,2013-04-19 08:52:00,
2013-04-19 04:01:00,38.0,30.0,29.62,West,270,11.0,-999.0,74,-99.99,,,-99.99,,2013-04-19 09:01:00,
2013-04-19 04:11:00,38.0,30.0,29.63,WSW,247,12.0,-999.0,74,-99.99,,,-99.99,,2013-04-19 09:11:00,
2013-04-19 04:21:00,38.0,30.0,29.63,WSW,247,12.0,-999.0,74,-99.99,,,-99.99,,2013-04-19 09:21:00,
2013-04-19 04:32:00,38.0,31.0,29.63,West,262,9.0,-999.0,76,-99.99,,,-99.99,,2013-04-19 09:32:00,
2013-04-19 04:42:00,38.0,31.0,29.63,West,262,9.0,-999.0,76,-99.99,,,-99.99,,2013-04-19 09:42:00,
2013-04-19 04:52:00,38.0,31.0,29.63,WNW,288,10.0,-999.0,75,-99.99,,,-99.99,,2013-04-19 09:52:00,
2013-04-19 05:02:00,38.0,31.0,29.63,WSW,245,11.0,-999.0,76,-99.99,,,-99.99,,2013-04-19 10:02:00,
2013-04-19 05:13:00,38.0,31.0,29.63,West,268,12.0,-999.0,75,-99.99,,,-99.99,,2013-04-19 10:13:00,
2013-04-19 05:23:00,38.0,31.0,29.63,West,268,12.0,-999.0,75,-99.99,,,-99.99,,2013-04-19 10:23:00,
2013-04-19 05:33:00,38.0,31.0,29.63,WSW,253,12.0,-999.0,76,-99.99,,,-99.99,,2013-04-19 10:33:00,
2013-04-19 05:42:00,38.0,32.0,29.63,WNW,297,9.0,-999.0,78,-99.99,,,-99.99,,2013-04-19 10:42:00,
2013-04-19 05:52:00,38.0,32.0,29.63,WNW,297,9.0,-999.0,78,-99.99,,,-99.99,,2013-04-19 10:52:00,
2013-04-19 06:02:00,37.0,29.0,29.63,West,266,13.0,-999.0,74,-99.99,,,-99.99,,2013-04-19 11:02:00,
2013-04-19 06:11:00,37.0,30.0,29.64,WSW,253,12.0,-999.0,76,-99.99,,,-99.99,,2013-04-19 11:11:00,
2013-04-19 06:22:00,37.0,30.0,29.64,WSW,253,12.0,-999.0,76,-99.99,,,-99.99,,2013-04-19 11:22:00,
2013-04-19 06:32:00,37.0,30.0,29.65,WNW,283,10.0,-999.0,77,-99.99,,,-99.99,,2013-04-19 11:32:00,
2013-04-19 06:42:00,37.0,30.0,29.65,WNW,283,10.0,-999.0,77,-99.99,,,-99.99,,2013-04-19 11:42:00,
2013-04-19 06:52:00,37.0,30.0,29.65,West,262,8.0,-999.0,77,-99.99,,,-99.99,,2013-04-19 11:52:00,
2013-04-19 07:02:00,37.0,30.0,29.66,West,271,10.0,-999.0,77,-99.99,,,-99.99,,2013-04-19 12:02:00,
2013-04-19 07:12:00,37.0,30.0,29.67,West,274,13.0,-999.0,77,-99.99,,,-99.99,,2013-04-19 12:12:00,
2013-04-19 07:22:00,37.0,30.0,29.67,West,274,13.0,-999.0,77,-99.99,,,-99.99,,2013-04-19 12:22:00,
2013-04-19 07:32:00,36.0,30.0,29.68,West,263,14.0,-999.0,78,-99.99,,,-99.99,,2013-04-19 12:32:00,
2013-04-19 07:42:00,36.0,30.0,29.68,West,263,14.0,-999.0,78,-99.99,,,-99.99,,2013-04-19 12:42:00,
2013-04-19 07:52:00,36.0,29.0,29.68,West,276,13.0,-999.0,77,-99.99,,,-99.99,,2013-04-19 12:52:00,
2013-04-19 08:01:00,36.0,29.0,29.69,West,270,14.0,-999.0,75,-99.99,,,-99.99,,2013-04-19 13:01:00,
2013-04-19 08:11:00,36.0,29.0,29.70,WSW,241,13.0,-999.0,75,-99.99,,,-99.99,,2013-04-19 13:11:00,
2013-04-19 08:21:00,36.0,29.0,29.70,WSW,241,13.0,-999.0,75,-99.99,,,-99.99,,2013-04-19 13:21:00,
2013-04-19 08:32:00,36.0,29.0,29.71,NW,310,13.0,-999.0,74,-99.99,,,-99.99,,2013-04-19 13:32:00,
2013-04-19 08:42:00,36.0,29.0,29.71,WSW,245,12.0,-999.0,74,-99.99,,,-99.99,,2013-04-19 13:42:00,
2013-04-19 08:52:00,36.0,29.0,29.71,WSW,245,12.0,-999.0,74,-99.99,,,-99.99,,2013-04-19 13:52:00,
2013-04-19 09:01:00,37.0,30.0,29.71,West,278,10.0,-999.0,75,-99.99,,,-99.99,,2013-04-19 14:01:00,
2013-04-19 09:11:00,37.0,30.0,29.71,West,272,11.0,-999.0,75,-99.99,,,-99.99,,2013-04-19 14:11:00,
2013-04-19 09:22:00,37.0,30.0,29.71,West,272,11.0,-999.0,75,-99.99,,,-99.99,,2013-04-19 14:22:00,
2013-04-19 09:32:00,37.0,29.0,29.71,WNW,286,14.0,-999.0,74,-99.99,,,-99.99,,2013-04-19 14:32:00,
2013-04-19 09:42:00,37.0,29.0,29.71,WNW,286,14.0,-999.0,74,-99.99,,,-99.99,,2013-04-19 14:42:00,
2013-04-19 09:52:00,37.0,30.0,29.72,West,281,13.0,-999.0,75,-99.99,,,-99.99,,2013-04-19 14:52:00,
2013-04-19 10:01:00,37.0,30.0,29.72,NW,306,11.0,-999.0,75,-99.99,,,-99.99,,2013-04-19 15:01:00,
2013-04-19 10:12:00,37.0,29.0,29.72,WNW,299,13.0,-999.0,74,-99.99,,,-99.99,,2013-04-19 15:12:00,
2013-04-19 10:21:00,37.0,29.0,29.72,WNW,299,13.0,-999.0,74,-99.99,,,-99.99,,2013-04-19 15:21:00,
2013-04-19 10:33:00,37.0,29.0,29.72,WSW,245,12.0,-999.0,74,-99.99,,,-99.99,,2013-04-19 15:33:00,
2013-04-19 10:43:00,37.0,29.0,29.72,WSW,245,12.0,-999.0,74,-99.99,,,-99.99,,2013-04-19 15:43:00,
2013-04-19 10:52:00,37.0,29.0,29.72,West,271,10.0,-999.0,74,-99.99,,,-99.99,,2013-04-19 15:52:00,
2013-04-19 11:03:00,37.0,30.0,29.73,WSW,245,12.0,-999.0,75,-99.99,,,-99.99,,2013-04-19 16:03:00,
2013-04-19 11:12:00,37.0,29.0,29.73,WSW,254,12.0,-999.0,74,-99.99,,,-99.99,,2013-04-19 16:12:00,
2013-04-19 11:23:00,37.0,29.0,29.73,WSW,254,12.0,-999.0,74,-99.99,,,-99.99,,2013-04-19 16:23:00,
2013-04-19 11:32:00,38.0,31.0,29.73,WSW,250,13.0,-999.0,76,-99.99,,,-99.99,,2013-04-19 16:32:00,
2013-04-19 11:42:00,37.0,30.0,29.74,SW,230,11.0,-999.0,77,-99.99,,,-99.99,,2013-04-19 16:42:00,
2013-04-19 11:52:00,37.0,30.0,29.74,SW,230,11.0,-999.0,77,-99.99,,,-99.99,,2013-04-19 16:52:00,
2013-04-19 12:02:00,38.0,31.0,29.74,West,267,12.0,-999.0,75,-99.99,,,-99.99,,2013-04-19 17:02:00,
2013-04-19 12:12:00,38.0,31.0,29.74,West,267,12.0,-999.0,75,-99.99,,,-99.99,,2013-04-19 17:12:00,
2013-04-19 12:21:00,38.0,29.0,29.74,West,270,15.0,-999.0,71,-99.99,,,-99.99,,2013-04-19 17:21:00,
2013-04-19 12:33:00,38.0,30.0,29.75,West,271,14.0,-999.0,74,-99.99,,,-99.99,,2013-04-19 17:33:00,
2013-04-19 12:42:00,38.0,30.0,29.75,West,271,14.0,-999.0,74,-99.99,,,-99.99,,2013-04-19 17:42:00,
2013-04-19 12:52:00,40.0,31.0,29.75,West,272,12.0,-999.0,69,-99.99,,,-99.99,,2013-04-19 17:52:00,
2013-04-19 13:02:00,39.0,31.0,29.76,West,271,16.0,-999.0,72,-99.99,,,-99.99,,2013-04-19 18:02:00,
2013-04-19 13:13:00,39.0,31.0,29.76,West,271,16.0,-999.0,72,-99.99,,,-99.99,,2013-04-19 18:13:00,
2013-04-19 13:22:00,39.0,31.0,29.77,West,269,11.0,-999.0,73,-99.99,,,-99.99,,2013-04-19 18:22:00,
2013-04-19 13:33:00,40.0,31.0,29.77,SW,235,13.0,-999.0,71,-99.99,,,-99.99,,2013-04-19 18:33:00,
2013-04-19 13:42:00,40.0,31.0,29.77,SW,235,13.0,-999.0,71,-99.99,,,-99.99,,2013-04-19 18:42:00,
2013-04-19 13:52:00,40.0,31.0,29.77,West,266,13.0,-999.0,70,-99.99,,,-99.99,,2013-04-19 18:52:00,
2013-04-19 14:01:00,40.0,31.0,29.77,West,276,12.0,-999.0,69,-99.99,,,-99.99,,2013-04-19 19:01:00,
2013-04-19 14:11:00,41.0,31.0,29.78,WNW,291,12.0,-999.0,67,-99.99,,,-99.99,,2013-04-19 19:11:00,
2013-04-19 14:21:00,41.0,31.0,29.78,WNW,291,12.0,-999.0,67,-99.99,,,-99.99,,2013-04-19 19:21:00,
2013-04-19 14:32:00,41.0,31.0,29.78,WNW,285,11.0,-999.0,68,-99.99,,,-99.99,,2013-04-19 19:32:00,
2013-04-19 14:42:00,41.0,31.0,29.78,WNW,285,11.0,-999.0,68,-99.99,,,-99.99,,2013-04-19 19:42:00,
2013-04-19 14:52:00,41.0,31.0,29.78,West,275,13.0,-999.0,67,-99.99,,,-99.99,,2013-04-19 19:52:00,
2013-04-19 15:02:00,42.0,32.0,29.78,West,276,11.0,-999.0,67,-99.99,,,-99.99,,2013-04-19 20:02:00,
2013-04-19 15:11:00,42.0,32.0,29.78,WNW,291,12.0,-999.0,67,-99.99,,,-99.99,,2013-04-19 20:11:00,
2013-04-19 15:22:00,42.0,32.0,29.78,WNW,291,12.0,-999.0,67,-99.99,,,-99.99,,2013-04-19 20:22:00,
2013-04-19 15:32:00,42.0,31.0,29.79,WNW,300,12.0,-999.0,65,-99.99,,,-99.99,,2013-04-19 20:32:00,
2013-04-19 15:42:00,42.0,31.0,29.79,NW,311,11.0,-999.0,65,-99.99,,,-99.99,,2013-04-19 20:42:00,
2013-04-19 15:51:00,42.0,31.0,29.79,NW,311,11.0,-999.0,65,-99.99,,,-99.99,,2013-04-19 20:51:00,
2013-04-19 16:01:00,42.0,31.0,29.79,NW,306,10.0,-999.0,66,-99.99,,,-99.99,,2013-04-19 21:01:00,
2013-04-19 16:11:00,43.0,33.0,29.79,West,262,8.0,-999.0,67,-99.99,,,-99.99,,2013-04-19 21:11:00,
2013-04-19 16:21:00,43.0,33.0,29.79,West,262,8.0,-999.0,67,-99.99,,,-99.99,,2013-04-19 21:21:00,
2013-04-19 16:32:00,43.0,32.0,29.80,West,266,10.0,-999.0,64,-99.99,,,-99.99,,2013-04-19 21:32:00,
2013-04-19 16:42:00,43.0,32.0,29.80,West,266,10.0,-999.0,64,-99.99,,,-99.99,,2013-04-19 21:42:00,
2013-04-19 16:52:00,44.0,33.0,29.80,WNW,302,12.0,-999.0,65,-99.99,,,-99.99,,2013-04-19 21:52:00,
2013-04-19 17:02:00,45.0,34.0,29.81,West,281,12.0,-999.0,65,-99.99,,,-99.99,,2013-04-19 22:02:00,
2013-04-19 17:12:00,44.0,31.0,29.82,WNW,295,12.0,-999.0,60,-99.99,,,-99.99,,2013-04-19 22:12:00,
2013-04-19 17:22:00,44.0,31.0,29.82,WNW,295,12.0,-999.0,60,-99.99,,,-99.99,,2013-04-19 22:22:00,
2013-04-19 17:33:00,43.0,31.0,29.83,WNW,297,16.0,-999.0,62,-99.99,,,-99.99,,2013-04-19 22:33:00,
2013-04-19 17:42:00,43.0,33.0,29.83,West,268,11.0,-999.0,67,-99.99,,,-99.99,,2013-04-19 22:42:00,
2013-04-19 17:52:00,43.0,33.0,29.83,West,268,11.0,-999.0,67,-99.99,,,-99.99,,2013-04-19 22:52:00,
2013-04-19 18:02:00,44.0,33.0,29.84,West,265,12.0,-999.0,65,-99.99,,,-99.99,,2013-04-19 23:02:00,
2013-04-19 18:11:00,44.0,33.0,29.84,West,265,12.0,-999.0,65,-99.99,,,-99.99,,2013-04-19 23:11:00,
2013-04-19 18:22:00,44.0,32.0,29.85,WNW,292,14.0,-999.0,63,-99.99,,,-99.99,,2013-04-19 23:22:00,
2013-04-19 18:32:00,43.0,33.0,29.85,West,269,10.0,-999.0,67,-99.99,,,-99.99,,2013-04-19 23:32:00,
2013-04-19 18:42:00,43.0,33.0,29.85,West,269,10.0,-999.0,67,-99.99,,,-99.99,,2013-04-19 23:42:00,
2013-04-19 18:52:00,44.0,31.0,29.85,WSW,256,11.0,-999.0,61,-99.99,,,-99.99,,2013-04-19 23:52:00,
2013-04-19 19:02:00,44.0,31.0,29.86,WNW,298,12.0,-999.0,61,-99.99,,,-99.99,,2013-04-20 00:02:00,
2013-04-19 19:12:00,44.0,31.0,29.86,West,263,10.0,-999.0,61,-99.99,,,-99.99,,2013-04-20 00:12:00,
2013-04-19 19:21:00,44.0,31.0,29.86,West,263,10.0,-999.0,61,-99.99,,,-99.99,,2013-04-20 00:21:00,
2013-04-19 19:32:00,44.0,31.0,29.87,WNW,299,11.0,-999.0,61,-99.99,,,-99.99,,2013-04-20 00:32:00,
2013-04-19 19:41:00,44.0,31.0,29.87,WNW,299,11.0,-999.0,61,-99.99,,,-99.99,,2013-04-20 00:41:00,
2013-04-19 19:51:00,43.0,31.0,29.88,WNW,286,8.0,-999.0,63,-99.99,,,-99.99,,2013-04-20 00:51:00,
2013-04-19 20:01:00,43.0,31.0,29.89,West,279,8.0,-999.0,63,-99.99,,,-99.99,,2013-04-20 01:01:00,
2013-04-19 20:11:00,43.0,31.0,29.89,West,279,8.0,-999.0,63,-99.99,,,-99.99,,2013-04-20 01:11:00,
2013-04-19 20:21:00,43.0,31.0,29.90,WNW,289,11.0,-999.0,63,-99.99,,,-99.99,,2013-04-20 01:21:00,
2013-04-19 20:32:00,42.0,31.0,29.90,NW,311,8.0,-999.0,64,-99.99,,,-99.99,,2013-04-20 01:32:00,
2013-04-19 20:42:00,42.0,31.0,29.90,NW,311,8.0,-999.0,64,-99.99,,,-99.99,,2013-04-20 01:42:00,
2013-04-19 20:52:00,42.0,30.0,29.91,West,263,9.0,-999.0,63,-99.99,,,-99.99,,2013-04-20 01:52:00,
2013-04-19 21:01:00,42.0,31.0,29.91,WNW,301,7.0,-999.0,65,-99.99,,,-99.99,,2013-04-20 02:01:00,
2013-04-19 21:11:00,41.0,30.0,29.93,WNW,294,7.0,-999.0,65,-99.99,,,-99.99,,2013-04-20 02:11:00,
2013-04-19 21:21:00,41.0,30.0,29.93,WNW,294,7.0,-999.0,65,-99.99,,,-99.99,,2013-04-20 02:21:00,
2013-04-19 21:32:00,41.0,31.0,29.93,West,266,7.0,-999.0,66,-99.99,,,-99.99,,2013-04-20 02:32:00,
2013-04-19 21:42:00,41.0,31.0,29.93,West,266,7.0,-999.0,66,-99.99,,,-99.99,,2013-04-20 02:42:00,
2013-04-19 21:52:00,41.0,31.0,29.94,WNW,283,6.0,-999.0,67,-99.99,,,-99.99,,2013-04-20 02:52:00,
2013-04-19 22:01:00,41.0,31.0,29.94,West,262,6.0,-999.0,66,-99.99,,,-99.99,,2013-04-20 03:01:00,
2013-04-19 22:11:00,40.0,30.0,29.95,West,269,6.0,-999.0,68,-99.99,,,-99.99,,2013-04-20 03:11:00,
2013-04-19 22:21:00,40.0,30.0,29.95,West,269,6.0,-999.0,68,-99.99,,,-99.99,,2013-04-20 03:21:00,
2013-04-19 22:33:00,40.0,30.0,29.95,WNW,287,7.0,-999.0,68,-99.99,,,-99.99,,2013-04-20 03:33:00,
2013-04-19 22:43:00,41.0,31.0,29.96,West,260,7.0,-999.0,67,-99.99,,,-99.99,,2013-04-20 03:43:00,
2013-04-19 22:52:00,41.0,31.0,29.96,West,260,7.0,-999.0,67,-99.99,,,-99.99,,2013-04-20 03:52:00,
2013-04-19 23:03:00,40.0,30.0,29.96,West,278,6.0,-999.0,68,-99.99,,,-99.99,,2013-04-20 04:03:00,
2013-04-19 23:12:00,40.0,30.0,29.96,West,278,6.0,-999.0,68,-99.99,,,-99.99,,2013-04-20 04:12:00,
2013-04-19 23:23:00,40.0,30.0,29.96,WNW,299,5.0,-999.0,68,-99.99,,,-99.99,,2013-04-20 04:23:00,
2013-04-19 23:32:00,38.0,30.0,29.98,NNW,329,8.0,-999.0,74,-99.99,,,-99.99,,2013-04-20 04:32:00,
2013-04-19 23:42:00,38.0,30.0,29.98,NNW,329,8.0,-999.0,74,-99.99,,,-99.99,,2013-04-20 04:42:00,
2013-04-19 23:52:00,37.0,30.0,29.98,NNW,339,7.0,-999.0,76,-99.99,,,-99.99,,2013-04-20 04:52:00,